Irbit, Russia
Current Conditions -  °F | °C
As of 5:00 AM on Monday 24 Nov 2014 (Local Time) from USTR Reporting Station
Clear Clear  
Wind Chill: -29°   Ceiling: Unl
Heat Index: -11°   Visibility: 6mi
Dew Point: -15°   Wind: 9mph
Humidity: 84%   Direction: 300°WNW
Pressure: 30.42"   Gusts: 16mph
Location:  57.67°N, 63.06°E
Report Text: USTR 240000Z 30004G07MPS CAVOK M24/M26 Q1030 NOSIG RMKQFE762/1016 03450160 12790029
Loading
Personal Weather Stations






























Interactive Weather Map New forecast layout! Learn more

10-Day Weather Forecast

Advertisements
Track Severe Weather on mobile